createdAt,value
2019-05-13T00:03:13.572Z,4
2019-05-13T00:08:13.914Z,4
2019-05-13T00:13:14.444Z,4
2019-05-13T00:18:14.133Z,4
2019-05-13T00:23:14.049Z,4
2019-05-13T00:28:14.180Z,4
2019-05-13T00:33:13.901Z,3
2019-05-13T00:38:14.065Z,3
2019-05-13T00:43:14.174Z,3
2019-05-13T00:48:14.077Z,2
2019-05-13T00:53:13.319Z,3
2019-05-13T00:58:13.925Z,2
2019-05-13T01:03:14.015Z,2
2019-05-13T01:08:14.258Z,3
2019-05-13T01:13:13.544Z,3
2019-05-13T01:18:14.135Z,2
2019-05-13T01:23:14.069Z,4
2019-05-13T01:28:13.442Z,3
2019-05-13T01:33:14.179Z,3
2019-05-13T01:38:13.458Z,4
2019-05-13T01:43:14.275Z,2
2019-05-13T01:48:14.051Z,2
2019-05-13T01:53:14.017Z,3
2019-05-13T01:58:14.304Z,3
2019-05-13T02:03:13.722Z,3
2019-05-13T02:08:14.055Z,3
2019-05-13T02:13:14.588Z,2
2019-05-13T02:18:13.429Z,4
2019-05-13T02:23:14.334Z,3
2019-05-13T02:28:13.828Z,3
2019-05-13T02:33:13.124Z,3
2019-05-13T02:38:22.487Z,2
2019-05-13T02:43:13.529Z,3
2019-05-13T02:48:12.707Z,3
2019-05-13T02:53:13.564Z,3
2019-05-13T02:58:12.570Z,3
2019-05-13T03:03:12.946Z,3
2019-05-13T03:08:12.850Z,3
2019-05-13T03:13:12.730Z,3
2019-05-13T03:18:13.228Z,2
2019-05-13T03:23:13.369Z,3
2019-05-13T03:28:13.382Z,3
2019-05-13T03:33:18.486Z,3
2019-05-13T03:38:12.833Z,3
2019-05-13T03:43:12.940Z,3
2019-05-13T03:48:12.300Z,3
2019-05-13T03:53:12.962Z,3
2019-05-13T03:58:13.032Z,4
2019-05-13T04:03:13.466Z,3
2019-05-13T04:08:13.175Z,3
2019-05-13T04:13:12.474Z,2
2019-05-13T04:18:12.612Z,3
2019-05-13T04:23:12.929Z,3
2019-05-13T04:28:13.278Z,3
2019-05-13T04:33:13.823Z,3
2019-05-13T04:38:12.969Z,3
2019-05-13T04:43:12.947Z,2
2019-05-13T04:48:12.840Z,3
2019-05-13T04:53:13.600Z,3
2019-05-13T04:58:12.917Z,4
2019-05-13T05:03:13.601Z,3
2019-05-13T05:08:12.195Z,4
2019-05-13T05:13:12.773Z,4
2019-05-13T05:18:12.100Z,4
2019-05-13T05:23:12.102Z,4
2019-05-13T05:28:12.097Z,4
2019-05-13T05:33:12.098Z,4
2019-05-13T05:38:12.183Z,4
2019-05-13T05:43:12.103Z,4
2019-05-13T05:48:12.114Z,4
2019-05-13T05:53:12.100Z,5
2019-05-13T05:58:12.133Z,4
2019-05-13T06:03:13.743Z,4
2019-05-13T06:08:12.104Z,4
2019-05-13T06:13:12.284Z,6
2019-05-13T06:18:12.104Z,5
2019-05-13T06:23:12.101Z,5
2019-05-13T06:28:12.474Z,4
2019-05-13T06:33:12.221Z,5
2019-05-13T06:38:12.121Z,5
2019-05-13T06:43:12.210Z,5
2019-05-13T06:48:12.109Z,5
2019-05-13T06:53:12.614Z,6
2019-05-13T06:58:12.116Z,5
2019-05-13T07:03:12.880Z,4
2019-05-13T07:08:12.286Z,5
2019-05-13T07:13:12.115Z,5
2019-05-13T07:18:12.115Z,4
2019-05-13T07:23:12.465Z,5
2019-05-13T07:28:12.760Z,5
2019-05-13T07:33:12.687Z,5
2019-05-13T07:38:12.123Z,5
2019-05-13T07:43:12.525Z,5
2019-05-13T07:48:20.851Z,4
2019-05-13T07:53:16.727Z,5
2019-05-13T07:58:12.128Z,4
2019-05-13T08:03:12.547Z,4
2019-05-13T08:08:12.150Z,4
2019-05-13T08:13:12.258Z,5
2019-05-13T08:18:12.486Z,4
2019-05-13T08:23:12.348Z,5
2019-05-13T08:28:12.539Z,4
2019-05-13T08:33:12.653Z,4
2019-05-13T08:38:12.228Z,5
2019-05-13T08:43:12.293Z,5
2019-05-13T08:48:12.866Z,5
2019-05-13T08:53:12.439Z,5
2019-05-13T08:58:12.590Z,5
2019-05-13T09:03:12.251Z,6
2019-05-13T09:08:12.169Z,5
2019-05-13T09:13:12.177Z,5
2019-05-13T09:18:12.150Z,5
2019-05-13T09:23:12.157Z,5
2019-05-13T09:28:12.528Z,6
2019-05-13T09:33:12.154Z,5
2019-05-13T09:38:12.760Z,5
2019-05-13T09:43:12.160Z,4
2019-05-13T09:48:12.909Z,4
2019-05-13T09:53:12.165Z,4
2019-05-13T09:58:12.188Z,5
2019-05-13T10:03:13.695Z,4
2019-05-13T10:08:12.574Z,3
2019-05-13T10:13:15.375Z,3
2019-05-13T10:18:12.652Z,3
2019-05-13T10:23:12.666Z,4
2019-05-13T10:28:13.250Z,3
2019-05-13T10:33:12.643Z,3
2019-05-13T10:38:13.340Z,4
2019-05-13T10:43:26.827Z,3
2019-05-13T10:48:13.392Z,4
2019-05-13T10:53:12.436Z,4
2019-05-13T10:58:12.457Z,2
2019-05-13T11:03:12.291Z,3
2019-05-13T11:08:12.223Z,3
2019-05-13T11:13:12.217Z,2
2019-05-13T11:18:18.787Z,3
2019-05-13T11:23:12.605Z,3
2019-05-13T11:28:12.417Z,3
2019-05-13T11:33:12.227Z,4
2019-05-13T11:38:12.359Z,2
2019-05-13T11:43:12.404Z,2
2019-05-13T11:48:13.125Z,3
2019-05-13T11:53:31.192Z,3
2019-05-13T11:58:13.743Z,3
2019-05-13T12:03:12.238Z,3
2019-05-13T12:08:12.774Z,4
2019-05-13T12:13:12.647Z,3
2019-05-13T12:18:12.778Z,5
2019-05-13T12:23:12.928Z,3
2019-05-13T12:28:12.240Z,3
2019-05-13T12:33:13.449Z,3
2019-05-13T12:38:13.374Z,4
2019-05-13T12:43:13.208Z,3
2019-05-13T12:48:13.887Z,3
2019-05-13T12:53:12.874Z,3
2019-05-13T12:58:12.334Z,3
2019-05-13T13:03:13.267Z,4
2019-05-13T13:08:19.094Z,4
2019-05-13T13:13:12.248Z,3
2019-05-13T13:18:14.264Z,3
2019-05-13T13:23:12.987Z,4
2019-05-13T13:28:15.369Z,4
2019-05-13T13:33:14.868Z,3
2019-05-13T13:38:12.244Z,3
2019-05-13T13:43:12.901Z,3
2019-05-13T13:48:13.197Z,3
2019-05-13T13:53:13.851Z,3
2019-05-13T13:58:14.113Z,3
2019-05-13T14:03:12.594Z,3
2019-05-13T14:08:12.624Z,4
2019-05-13T14:13:12.653Z,3
2019-05-13T14:18:12.247Z,3
2019-05-13T14:23:12.690Z,3
2019-05-13T14:28:16.966Z,3
2019-05-13T14:33:12.263Z,3
2019-05-13T14:38:12.271Z,4
2019-05-13T14:43:12.281Z,5
2019-05-13T14:48:12.654Z,4
2019-05-13T14:53:12.259Z,4
2019-05-13T14:58:12.263Z,4
2019-05-13T15:03:13.014Z,5
2019-05-13T15:08:12.267Z,4
2019-05-13T15:13:12.275Z,4
2019-05-13T15:18:12.273Z,4
2019-05-13T15:23:12.271Z,4
2019-05-13T15:28:12.278Z,4
2019-05-13T15:33:12.311Z,4
2019-05-13T15:38:12.661Z,4
2019-05-13T15:43:12.279Z,4
2019-05-13T15:48:12.280Z,3
2019-05-13T15:53:12.834Z,5
2019-05-13T15:58:12.281Z,4
2019-05-13T16:03:12.372Z,5
2019-05-13T16:08:12.392Z,4
2019-05-13T16:13:12.289Z,5
2019-05-13T16:18:12.308Z,4
2019-05-13T16:23:12.561Z,5
2019-05-13T16:28:12.299Z,3
2019-05-13T16:33:12.367Z,4
2019-05-13T16:38:12.295Z,5
2019-05-13T16:43:12.915Z,4
2019-05-13T16:48:12.549Z,3
2019-05-13T16:53:12.300Z,4
2019-05-13T16:58:12.636Z,4
2019-05-13T17:03:12.305Z,3
2019-05-13T17:08:12.298Z,4
2019-05-13T17:13:12.320Z,3
2019-05-13T17:18:15.241Z,3
2019-05-13T17:23:12.606Z,4
2019-05-13T17:28:13.211Z,3
2019-05-13T17:33:12.303Z,3
2019-05-13T17:38:12.300Z,3
2019-05-13T17:43:12.329Z,3
2019-05-13T17:48:25.704Z,3
2019-05-13T17:53:12.328Z,3
2019-05-13T17:58:12.306Z,3
2019-05-13T18:03:12.332Z,2
2019-05-13T18:08:12.308Z,3
2019-05-13T18:13:12.704Z,3
2019-05-13T18:18:12.314Z,2
2019-05-13T18:23:12.312Z,3
2019-05-13T18:28:26.647Z,2
2019-05-13T18:33:12.313Z,3
2019-05-13T18:38:12.312Z,3
2019-05-13T18:43:12.320Z,3
2019-05-13T18:48:12.416Z,2
2019-05-13T18:53:12.347Z,3
2019-05-13T18:58:12.308Z,3
2019-05-13T19:03:12.557Z,2
2019-05-13T19:08:12.496Z,3
2019-05-13T19:13:12.550Z,2
2019-05-13T19:18:12.424Z,3
2019-05-13T19:23:12.317Z,2
2019-05-13T19:28:12.309Z,2
2019-05-13T19:33:12.340Z,3
2019-05-13T19:38:12.333Z,2
2019-05-13T19:43:12.337Z,3
2019-05-13T19:48:12.317Z,3
2019-05-13T19:53:12.316Z,2
2019-05-13T19:58:12.571Z,3
2019-05-13T20:03:12.320Z,3
2019-05-13T20:08:12.315Z,2
2019-05-13T20:13:12.316Z,3
2019-05-13T20:18:12.321Z,2
2019-05-13T20:23:12.318Z,2
2019-05-13T20:28:12.316Z,2
2019-05-13T20:33:12.328Z,2
2019-05-13T20:38:12.325Z,2
2019-05-13T20:43:12.325Z,2
2019-05-13T20:48:12.317Z,2
2019-05-13T20:53:12.331Z,3
2019-05-13T20:58:12.876Z,2
2019-05-13T21:03:12.336Z,3
2019-05-13T21:08:12.331Z,3
2019-05-13T21:13:12.357Z,3
2019-05-13T21:18:12.343Z,3
2019-05-13T21:23:12.360Z,3
2019-05-13T21:28:12.341Z,2
2019-05-13T21:33:12.339Z,2
2019-05-13T21:38:12.339Z,2
2019-05-13T21:43:12.334Z,3
2019-05-13T21:48:12.342Z,3
2019-05-13T21:53:12.559Z,3
2019-05-13T21:58:14.087Z,3
2019-05-13T22:03:12.357Z,2
2019-05-13T22:08:12.349Z,2
2019-05-13T22:13:12.363Z,3
2019-05-13T22:18:12.345Z,2
2019-05-13T22:23:12.355Z,3
2019-05-13T22:28:12.355Z,3
2019-05-13T22:33:12.426Z,3
2019-05-13T22:38:12.485Z,3
2019-05-13T22:43:12.390Z,3
2019-05-13T22:48:14.927Z,2
2019-05-13T22:53:12.362Z,3
2019-05-13T22:58:12.349Z,3
2019-05-13T23:03:12.378Z,3
2019-05-13T23:08:12.354Z,3
2019-05-13T23:13:12.356Z,3
2019-05-13T23:18:12.358Z,3
2019-05-13T23:23:12.356Z,4
2019-05-13T23:28:12.361Z,3
2019-05-13T23:33:12.368Z,26
2019-05-13T23:38:12.367Z,79
2019-05-13T23:43:12.374Z,65
2019-05-13T23:48:12.375Z,18
2019-05-13T23:53:12.392Z,4
2019-05-13T23:58:12.380Z,3
